createdAt,value
2019-04-22T00:04:33.816Z,35.70
2019-04-22T00:30:54.852Z,36.00
2019-04-22T00:44:27.098Z,36.00
2019-04-22T00:57:42.134Z,36.30
2019-04-22T01:11:03.306Z,36.30
2019-04-22T01:24:27.744Z,36.60
2019-04-22T01:37:46.016Z,36.60
2019-04-22T01:51:07.602Z,36.80
2019-04-22T02:17:53.459Z,37.30
2019-04-22T02:31:18.725Z,37.70
2019-04-22T02:44:08.216Z,37.80
2019-04-22T02:57:18.864Z,38.00
2019-04-22T03:10:37.409Z,38.10
2019-04-22T04:03:55.248Z,38.60
2019-04-22T04:17:08.907Z,38.80
2019-04-22T04:57:31.996Z,39.20
2019-04-22T05:10:49.750Z,39.30
2019-04-22T05:24:05.529Z,39.40
2019-04-22T05:37:20.701Z,39.50
2019-04-22T05:50:47.003Z,39.60
2019-04-22T06:17:35.110Z,39.70
2019-04-22T06:30:58.830Z,39.70
2019-04-22T06:44:22.648Z,37.20
2019-04-22T06:57:36.403Z,34.40
2019-04-22T07:10:58.257Z,32.70
2019-04-22T07:24:34.248Z,32.70
2019-04-22T07:37:43.905Z,32.10
2019-04-22T07:51:07.707Z,32.70
2019-04-22T08:04:49.170Z,33.20
2019-04-22T08:44:35.560Z,33.10
2019-04-22T09:10:38.045Z,32.60
2019-04-22T09:23:44.517Z,32.40
2019-04-22T09:36:50.487Z,32.20
2019-04-22T09:50:03.368Z,31.90
2019-04-22T10:16:10.601Z,31.50
2019-04-22T10:29:20.359Z,31.20
2019-04-22T10:41:58.998Z,30.90
2019-04-22T10:55:07.240Z,30.60
2019-04-22T11:08:19.452Z,30.70
2019-04-22T11:34:39.334Z,30.20
2019-04-22T11:47:47.479Z,30.40
2019-04-22T12:00:53.817Z,30.30
2019-04-22T12:14:02.020Z,30.30
2019-04-22T12:27:08.509Z,30.10
2019-04-22T12:40:25.888Z,30.00
2019-04-22T12:53:40.108Z,30.00
2019-04-22T13:07:01.837Z,30.00
2019-04-22T13:20:24.367Z,30.00
2019-04-22T13:33:49.925Z,29.80
2019-04-22T13:47:26.932Z,30.30
2019-04-22T14:00:34.204Z,29.60
2019-04-22T14:13:56.697Z,29.60
2019-04-22T14:27:25.876Z,29.30
2019-04-22T14:40:42.903Z,29.50
2019-04-22T14:54:13.791Z,29.60
2019-04-22T15:07:26.770Z,29.70
2019-04-22T15:20:52.207Z,29.60
2019-04-22T15:34:12.449Z,29.60
2019-04-22T15:47:35.250Z,29.40
2019-04-22T16:01:03.994Z,29.60
2019-04-22T16:14:23.921Z,29.70
2019-04-22T16:27:44.700Z,29.50
2019-04-22T16:41:06.894Z,29.60
2019-04-22T16:54:30.723Z,27.20
2019-04-22T17:07:52.247Z,29.00
2019-04-22T17:21:15.030Z,28.70
2019-04-22T17:34:39.182Z,28.80
2019-04-22T17:48:20.186Z,28.70
2019-04-22T18:01:39.768Z,28.70
2019-04-22T18:15:04.364Z,28.70
2019-04-22T18:28:30.386Z,29.00
2019-04-22T18:41:47.090Z,29.20
2019-04-22T18:55:07.211Z,29.30
2019-04-22T19:08:34.597Z,29.50
2019-04-22T19:21:55.959Z,29.70
2019-04-22T19:35:18.055Z,29.80
2019-04-22T19:48:51.169Z,30.00
2019-04-22T20:02:00.663Z,30.00
2019-04-22T20:15:22.658Z,30.20
2019-04-22T20:28:51.274Z,30.40
2019-04-22T20:42:22.799Z,30.50
2019-04-22T20:55:32.599Z,30.60
2019-04-22T21:22:03.682Z,30.90
2019-04-22T21:35:12.063Z,31.10
2019-04-22T21:48:28.123Z,31.30
2019-04-22T22:14:27.632Z,31.90
2019-04-22T22:27:50.805Z,32.10
2019-04-22T22:41:00.672Z,32.30
2019-04-22T22:54:39.020Z,32.60
2019-04-22T23:08:15.716Z,32.70
2019-04-22T23:21:15.989Z,32.70
2019-04-22T23:48:17.109Z,32.90
